createdAt,value
2019-03-21T00:01:59.860Z,5.67
2019-03-21T00:04:40.022Z,5.47
2019-03-21T00:07:20.094Z,5.60
2019-03-21T00:10:00.332Z,5.55
2019-03-21T00:12:40.115Z,4.85
2019-03-21T00:15:20.415Z,5.42
2019-03-21T00:18:01.652Z,5.97
2019-03-21T00:20:41.515Z,4.97
2019-03-21T00:23:21.773Z,6.10
2019-03-21T00:26:01.812Z,4.90
2019-03-21T00:28:42.087Z,5.03
2019-03-21T00:31:23.238Z,5.42
2019-03-21T00:34:04.066Z,5.33
2019-03-21T00:36:44.281Z,5.30
2019-03-21T00:39:32.449Z,5.42
2019-03-21T00:42:06.443Z,5.70
2019-03-21T00:44:46.447Z,4.67
2019-03-21T00:47:26.444Z,4.75
2019-03-21T00:50:06.714Z,4.90
2019-03-21T00:52:46.485Z,5.08
2019-03-21T00:55:26.214Z,4.40
2019-03-21T00:58:06.340Z,4.97
2019-03-21T01:00:46.741Z,5.65
2019-03-21T01:03:27.139Z,4.67
2019-03-21T01:06:07.098Z,4.50
2019-03-21T01:08:46.701Z,5.25
2019-03-21T01:11:26.967Z,5.33
2019-03-21T01:14:07.067Z,4.40
2019-03-21T01:16:47.429Z,3.98
2019-03-21T01:19:27.847Z,4.35
2019-03-21T01:22:08.395Z,3.80
2019-03-21T01:24:48.364Z,4.92
2019-03-21T01:27:28.571Z,4.10
2019-03-21T01:30:08.911Z,4.65
2019-03-21T01:32:49.437Z,4.40
2019-03-21T01:35:33.500Z,4.55
2019-03-21T01:38:13.569Z,5.70
2019-03-21T01:40:53.700Z,5.45
2019-03-21T01:43:33.548Z,4.25
2019-03-21T01:46:13.637Z,5.12
2019-03-21T01:48:53.715Z,4.42
2019-03-21T01:51:34.003Z,4.62
2019-03-21T01:54:15.769Z,5.20
2019-03-21T01:56:44.259Z,5.00
2019-03-21T01:59:31.368Z,5.33
2019-03-21T02:02:11.260Z,5.00
2019-03-21T02:04:52.143Z,5.42
2019-03-21T02:10:16.739Z,5.25
2019-03-21T02:12:56.990Z,4.30
2019-03-21T02:15:36.692Z,4.95
2019-03-21T02:18:16.704Z,4.85
2019-03-21T02:20:57.139Z,4.95
2019-03-21T02:23:37.287Z,4.17
2019-03-21T02:26:17.168Z,5.55
2019-03-21T02:28:57.155Z,5.00
2019-03-21T02:31:37.499Z,4.87
2019-03-21T02:34:17.284Z,5.28
2019-03-21T02:36:57.455Z,4.65
2019-03-21T02:39:37.641Z,5.10
2019-03-21T02:45:08.997Z,5.83
2019-03-21T02:47:46.065Z,5.95
2019-03-21T02:50:26.339Z,6.80
2019-03-21T02:53:06.496Z,6.92
2019-03-21T02:55:46.549Z,6.15
2019-03-21T02:58:24.918Z,5.60
2019-03-21T03:01:11.905Z,7.53
2019-03-21T03:03:53.861Z,7.40
2019-03-21T03:06:34.896Z,6.45
2019-03-21T03:09:15.027Z,6.62
2019-03-21T03:11:54.808Z,6.62
2019-03-21T03:14:34.989Z,5.83
2019-03-21T03:17:15.444Z,6.78
2019-03-21T03:19:55.364Z,5.75
2019-03-21T03:22:35.438Z,6.75
2019-03-21T03:25:15.322Z,6.35
2019-03-21T03:27:55.547Z,6.67
2019-03-21T03:30:35.629Z,5.53
2019-03-21T03:33:15.688Z,7.90
2019-03-21T03:35:56.008Z,6.40
2019-03-21T03:38:36.024Z,6.85
2019-03-21T03:41:16.289Z,7.40
2019-03-21T03:43:56.340Z,7.72
2019-03-21T03:46:36.744Z,8.53
2019-03-21T03:49:16.736Z,8.05
2019-03-21T03:51:57.095Z,7.00
2019-03-21T03:54:36.713Z,8.10
2019-03-21T03:57:20.391Z,8.25
2019-03-21T04:00:00.423Z,6.90
2019-03-21T04:02:41.086Z,8.05
2019-03-21T04:05:20.915Z,7.20
2019-03-21T04:08:01.016Z,7.85
2019-03-21T04:10:40.580Z,7.80
2019-03-21T04:13:20.763Z,7.85
2019-03-21T04:16:01.124Z,8.38
2019-03-21T04:18:40.909Z,8.30
2019-03-21T04:21:20.998Z,8.20
2019-03-21T04:24:04.143Z,8.23
2019-03-21T04:26:44.620Z,7.90
2019-03-21T04:29:24.398Z,8.00
2019-03-21T04:32:04.705Z,6.70
2019-03-21T04:34:45.138Z,7.80
2019-03-21T04:37:25.186Z,8.68
2019-03-21T04:40:05.119Z,7.97
2019-03-21T04:42:44.899Z,8.98
2019-03-21T04:45:25.608Z,8.15
2019-03-21T04:48:05.405Z,9.00
2019-03-21T04:50:46.216Z,7.00
2019-03-21T04:53:27.135Z,8.40
2019-03-21T04:56:07.449Z,9.08
2019-03-21T04:58:47.655Z,8.20
2019-03-21T05:01:28.018Z,8.25
2019-03-21T05:04:07.985Z,8.28
2019-03-21T05:06:48.543Z,8.83
2019-03-21T05:09:28.575Z,8.70
2019-03-21T05:12:08.424Z,8.70
2019-03-21T05:14:48.752Z,8.45
2019-03-21T05:17:28.806Z,8.93
2019-03-21T05:20:08.689Z,8.48
2019-03-21T05:22:48.846Z,8.35
2019-03-21T05:25:29.326Z,8.63
2019-03-21T05:28:09.102Z,9.05
2019-03-21T05:30:48.978Z,8.63
2019-03-21T05:33:29.207Z,8.50
2019-03-21T05:36:08.990Z,9.18
2019-03-21T05:38:49.415Z,7.80
2019-03-21T05:41:29.393Z,8.50
2019-03-21T05:44:09.152Z,8.33
2019-03-21T05:46:49.322Z,8.18
2019-03-21T05:49:29.427Z,8.38
2019-03-21T05:52:09.932Z,10.35
2019-03-21T05:54:49.741Z,9.75
2019-03-21T05:57:29.625Z,9.68
2019-03-21T06:00:09.908Z,8.13
2019-03-21T06:02:49.811Z,8.83
2019-03-21T06:05:29.930Z,9.40
2019-03-21T06:08:09.545Z,9.35
2019-03-21T06:10:49.587Z,7.97
2019-03-21T06:13:29.656Z,9.38
2019-03-21T06:16:18.268Z,9.60
2019-03-21T06:19:07.707Z,9.35
2019-03-21T06:21:47.986Z,8.30
2019-03-21T06:24:27.739Z,8.60
2019-03-21T06:27:14.379Z,9.68
2019-03-21T06:29:52.223Z,8.90
2019-03-21T06:32:20.260Z,9.63
2019-03-21T06:34:48.186Z,8.83
2019-03-21T06:37:28.847Z,8.40
2019-03-21T06:40:09.184Z,8.78
2019-03-21T06:45:29.181Z,7.42
2019-03-21T06:48:09.356Z,8.30
2019-03-21T06:53:58.535Z,8.60
2019-03-21T06:56:38.698Z,8.27
2019-03-21T06:59:18.649Z,8.40
2019-03-21T07:01:58.661Z,8.00
2019-03-21T07:04:38.448Z,9.37
2019-03-21T07:07:19.091Z,8.53
2019-03-21T07:09:59.044Z,8.97
2019-03-21T07:12:39.137Z,8.90
2019-03-21T07:18:02.305Z,8.10
2019-03-21T07:20:30.627Z,8.27
2019-03-21T07:23:17.511Z,6.80
2019-03-21T07:25:58.550Z,7.40
2019-03-21T07:28:38.683Z,8.13
2019-03-21T07:31:18.761Z,8.67
2019-03-21T07:33:58.668Z,8.60
2019-03-21T07:36:38.578Z,8.47
2019-03-21T07:39:18.610Z,8.40
2019-03-21T07:41:46.385Z,7.53
2019-03-21T07:44:33.653Z,8.13
2019-03-21T07:47:14.119Z,7.40
2019-03-21T07:49:54.617Z,7.60
2019-03-21T07:52:34.627Z,7.63
2019-03-21T07:55:15.085Z,6.63
2019-03-21T07:57:43.825Z,6.93
2019-03-21T08:00:30.834Z,6.83
2019-03-21T08:03:10.606Z,7.10
2019-03-21T08:05:50.794Z,7.07
2019-03-21T08:08:32.348Z,7.10
2019-03-21T08:11:12.996Z,6.50
2019-03-21T08:13:53.869Z,6.60
2019-03-21T08:16:34.391Z,6.60
2019-03-21T08:21:54.351Z,6.80
2019-03-21T08:24:34.423Z,7.10
2019-03-21T08:27:14.486Z,6.33
2019-03-21T08:32:34.553Z,7.10
2019-03-21T08:35:14.532Z,6.70
2019-03-21T08:37:54.857Z,7.27
2019-03-21T08:40:34.819Z,6.77
2019-03-21T08:43:14.742Z,7.00
2019-03-21T08:45:54.992Z,7.20
2019-03-21T08:48:35.404Z,6.43
2019-03-21T08:51:16.024Z,5.77
2019-03-21T08:53:55.379Z,6.67
2019-03-21T08:56:35.470Z,6.07
2019-03-21T08:59:15.400Z,6.70
2019-03-21T09:01:55.194Z,6.50
2019-03-21T09:04:35.352Z,4.80
2019-03-21T09:07:15.634Z,5.27
2019-03-21T09:09:55.407Z,4.93
2019-03-21T09:12:35.408Z,4.30
2019-03-21T09:15:15.596Z,4.40
2019-03-21T09:17:55.667Z,4.17
2019-03-21T09:20:35.790Z,4.27
2019-03-21T09:23:15.783Z,3.40
2019-03-21T09:25:55.684Z,4.13
2019-03-21T09:28:35.817Z,3.60
2019-03-21T09:31:15.992Z,3.73
2019-03-21T09:33:55.873Z,3.80
2019-03-21T09:36:34.072Z,3.33
2019-03-21T09:39:20.936Z,3.07
2019-03-21T09:44:40.447Z,3.23
2019-03-21T09:47:21.081Z,3.73
2019-03-21T09:50:01.795Z,3.17
2019-03-21T09:52:41.642Z,2.97
2019-03-21T09:55:21.597Z,3.00
2019-03-21T09:58:01.460Z,3.50
2019-03-21T10:00:41.646Z,2.90
2019-03-21T10:03:21.715Z,3.10
2019-03-21T10:06:01.549Z,3.13
2019-03-21T10:08:29.269Z,2.60
2019-03-21T10:11:36.061Z,3.77
2019-03-21T10:14:16.022Z,3.40
2019-03-21T10:16:55.763Z,2.90
2019-03-21T10:19:36.913Z,3.10
2019-03-21T10:22:17.099Z,3.30
2019-03-21T10:24:57.472Z,3.40
2019-03-21T10:27:36.880Z,3.00
2019-03-21T10:30:16.919Z,3.20
2019-03-21T10:32:56.772Z,3.33
2019-03-21T10:35:36.808Z,2.97
2019-03-21T10:38:16.864Z,3.90
2019-03-21T10:40:56.712Z,3.43
2019-03-21T10:43:36.708Z,3.40
2019-03-21T10:46:16.897Z,3.13
2019-03-21T10:48:58.123Z,2.90
2019-03-21T10:51:38.071Z,4.20
2019-03-21T10:54:18.376Z,3.20
2019-03-21T10:56:58.269Z,2.40
2019-03-21T10:59:37.766Z,2.77
2019-03-21T11:02:17.582Z,3.23
2019-03-21T11:04:57.505Z,3.23
2019-03-21T11:07:37.543Z,2.67
2019-03-21T11:10:17.710Z,3.10
2019-03-21T11:12:57.619Z,3.27
2019-03-21T11:16:06.303Z,2.93
2019-03-21T11:24:50.513Z,2.90
2019-03-21T11:27:30.927Z,2.80
2019-03-21T11:30:15.983Z,3.23
2019-03-21T11:32:53.179Z,3.00
2019-03-21T11:35:33.005Z,3.53
2019-03-21T11:38:13.201Z,3.10
2019-03-21T11:43:42.166Z,3.20
2019-03-21T11:46:22.335Z,3.20
2019-03-21T11:49:02.064Z,3.43
2019-03-21T11:51:42.018Z,4.00
2019-03-21T11:54:22.030Z,3.40
2019-03-21T11:57:01.932Z,3.50
2019-03-21T11:59:51.655Z,3.30
2019-03-21T12:02:27.404Z,2.53
2019-03-21T12:05:05.005Z,3.40
2019-03-21T12:07:45.211Z,3.03
2019-03-21T12:10:25.300Z,3.63
2019-03-21T12:13:05.496Z,3.00
2019-03-21T12:15:45.438Z,3.40
2019-03-21T12:18:25.032Z,3.40
2019-03-21T12:21:04.849Z,3.07
2019-03-21T12:23:45.188Z,3.37
2019-03-21T12:26:25.351Z,4.17
2019-03-21T12:29:05.620Z,3.10
2019-03-21T12:31:44.227Z,3.00
2019-03-21T12:34:31.108Z,3.77
2019-03-21T12:37:11.367Z,3.37
2019-03-21T12:39:54.369Z,3.30
2019-03-21T12:42:34.195Z,3.30
2019-03-21T12:45:14.120Z,2.93
2019-03-21T12:47:54.314Z,3.90
2019-03-21T12:50:34.578Z,2.97
2019-03-21T12:53:14.426Z,2.77
2019-03-21T12:55:54.669Z,3.00
2019-03-21T12:58:34.973Z,3.50
2019-03-21T13:01:14.647Z,3.43
2019-03-21T13:03:55.913Z,3.00
2019-03-21T13:06:35.725Z,3.60
2019-03-21T13:09:16.947Z,3.30
2019-03-21T13:11:56.620Z,2.60
2019-03-21T13:14:36.567Z,3.13
2019-03-21T13:17:16.617Z,4.17
2019-03-21T13:19:56.651Z,2.70
2019-03-21T13:22:36.525Z,3.37
2019-03-21T13:25:16.596Z,2.97
2019-03-21T13:27:56.559Z,2.80
2019-03-21T13:30:37.344Z,3.13
2019-03-21T13:33:17.798Z,3.40
2019-03-21T13:35:57.739Z,3.30
2019-03-21T13:38:37.531Z,3.33
2019-03-21T13:41:17.607Z,3.03
2019-03-21T13:43:59.032Z,2.67
2019-03-21T13:46:38.682Z,2.30
2019-03-21T13:49:18.525Z,2.70
2019-03-21T13:51:58.741Z,3.67
2019-03-21T13:54:38.483Z,3.30
2019-03-21T14:00:04.117Z,3.10
2019-03-21T14:02:44.071Z,3.40
2019-03-21T14:05:24.054Z,2.90
2019-03-21T14:10:49.972Z,2.80
2019-03-21T14:13:29.799Z,3.00
2019-03-21T14:16:10.168Z,2.67
2019-03-21T14:18:51.343Z,2.70
2019-03-21T14:21:31.045Z,2.90
2019-03-21T14:24:11.304Z,3.60
2019-03-21T14:26:51.135Z,2.80
2019-03-21T14:29:31.238Z,3.40
2019-03-21T14:32:11.829Z,3.43
2019-03-21T14:34:51.204Z,3.00
2019-03-21T14:37:34.922Z,3.10
2019-03-21T14:40:14.261Z,3.10
2019-03-21T14:42:54.784Z,3.03
2019-03-21T14:45:34.411Z,2.83
2019-03-21T14:48:14.248Z,2.30
2019-03-21T14:50:54.338Z,2.97
2019-03-21T14:53:34.520Z,2.60
2019-03-21T14:56:14.157Z,2.00
2019-03-21T14:58:54.105Z,2.77
2019-03-21T15:01:34.196Z,2.57
2019-03-21T15:04:14.562Z,2.20
2019-03-21T15:06:55.458Z,2.27
2019-03-21T15:09:35.746Z,2.73
2019-03-21T15:12:15.421Z,2.77
2019-03-21T15:14:55.702Z,2.47
2019-03-21T15:17:35.693Z,2.80
2019-03-21T15:20:15.828Z,2.30
2019-03-21T15:22:57.144Z,2.47
2019-03-21T15:25:36.863Z,2.83
2019-03-21T15:28:16.773Z,2.90
2019-03-21T15:30:56.608Z,3.30
2019-03-21T15:33:36.697Z,3.53
2019-03-21T15:36:16.859Z,2.90
2019-03-21T15:38:56.434Z,3.00
2019-03-21T15:41:36.770Z,3.90
2019-03-21T15:44:16.471Z,3.10
2019-03-21T15:46:56.912Z,2.97
2019-03-21T15:49:36.567Z,2.83
2019-03-21T15:52:16.936Z,3.20
2019-03-21T15:54:56.993Z,3.13
2019-03-21T15:57:37.462Z,2.90
2019-03-21T16:00:17.920Z,3.17
2019-03-21T16:02:57.847Z,2.47
2019-03-21T16:05:37.978Z,4.30
2019-03-21T16:08:17.912Z,3.50
2019-03-21T16:10:58.290Z,4.37
2019-03-21T16:13:38.285Z,4.50
2019-03-21T16:16:17.615Z,4.20
2019-03-21T16:18:45.273Z,4.17
2019-03-21T16:21:32.303Z,4.23
2019-03-21T16:24:12.659Z,4.40
2019-03-21T16:26:53.432Z,4.50
2019-03-21T16:29:35.918Z,4.30
2019-03-21T16:32:15.753Z,4.67
2019-03-21T16:34:55.704Z,4.70
2019-03-21T16:37:35.581Z,4.53
2019-03-21T16:40:15.844Z,4.10
2019-03-21T16:42:55.854Z,5.03
2019-03-21T16:45:36.279Z,4.50
2019-03-21T16:48:16.430Z,5.27
2019-03-21T16:50:56.656Z,4.40
2019-03-21T16:53:36.573Z,5.10
2019-03-21T16:56:16.891Z,4.33
2019-03-21T17:01:45.688Z,4.80
2019-03-21T17:04:25.669Z,4.50
2019-03-21T17:07:05.655Z,4.90
2019-03-21T17:09:49.470Z,5.40
2019-03-21T17:12:29.799Z,5.43
2019-03-21T17:15:09.923Z,5.60
2019-03-21T17:17:50.394Z,4.90
2019-03-21T17:20:30.052Z,5.00
2019-03-21T17:23:10.120Z,5.20
2019-03-21T17:25:50.402Z,5.13
2019-03-21T17:28:30.706Z,5.70
2019-03-21T17:31:11.306Z,5.17
2019-03-21T17:33:51.124Z,5.43
2019-03-21T17:36:30.736Z,6.10
2019-03-21T17:39:10.103Z,5.70
2019-03-21T17:41:49.566Z,5.60
2019-03-21T17:44:29.723Z,5.13
2019-03-21T17:47:09.929Z,4.70
2019-03-21T17:49:50.345Z,5.03
2019-03-21T17:52:30.328Z,4.20
2019-03-21T17:55:11.286Z,4.60
2019-03-21T17:57:51.622Z,5.40
2019-03-21T18:00:32.733Z,5.13
2019-03-21T18:03:12.717Z,4.97
2019-03-21T18:06:13.546Z,4.13
2019-03-21T18:12:27.536Z,5.57
2019-03-21T18:15:07.814Z,5.30
2019-03-21T18:17:47.647Z,4.67
2019-03-21T18:20:27.132Z,4.90
2019-03-21T18:23:05.394Z,5.17
2019-03-21T18:31:59.806Z,7.17
2019-03-21T18:34:40.174Z,5.90
2019-03-21T18:37:19.894Z,13.07
2019-03-21T18:39:59.928Z,6.17
2019-03-21T18:42:39.979Z,16.23
2019-03-21T18:45:19.789Z,12.83
2019-03-21T18:48:00.992Z,8.30
2019-03-21T18:50:41.113Z,6.80
2019-03-21T18:53:20.587Z,6.70
2019-03-21T18:56:01.067Z,7.67
2019-03-21T18:58:40.772Z,8.37
2019-03-21T19:01:21.356Z,8.37
2019-03-21T19:04:01.152Z,8.20
2019-03-21T19:06:41.066Z,8.50
2019-03-21T19:09:21.285Z,7.40
2019-03-21T19:12:01.181Z,8.67
2019-03-21T19:14:40.444Z,7.93
2019-03-21T19:17:20.027Z,8.50
2019-03-21T19:19:59.920Z,7.43
2019-03-21T19:22:40.263Z,8.13
2019-03-21T19:25:20.287Z,7.30
2019-03-21T19:28:00.358Z,8.20
2019-03-21T19:30:40.501Z,9.83
2019-03-21T19:33:20.320Z,8.93
2019-03-21T19:36:00.424Z,9.80
2019-03-21T19:38:40.479Z,7.50
2019-03-21T19:41:20.868Z,8.13
2019-03-21T19:44:01.037Z,8.83
2019-03-21T19:46:41.227Z,8.20
2019-03-21T19:49:21.202Z,7.67
2019-03-21T19:52:01.478Z,8.50
2019-03-21T19:54:40.901Z,9.20
2019-03-21T19:57:22.586Z,8.00
2019-03-21T20:00:02.969Z,7.00
2019-03-21T20:02:43.138Z,6.70
2019-03-21T20:05:23.025Z,6.77
2019-03-21T20:08:03.411Z,6.47
2019-03-21T20:10:43.234Z,6.13
2019-03-21T20:13:23.247Z,5.80
2019-03-21T20:16:03.238Z,4.87
2019-03-21T20:18:43.239Z,5.13
2019-03-21T20:21:24.451Z,5.20
2019-03-21T20:24:04.755Z,5.20
2019-03-21T20:26:44.795Z,6.47
2019-03-21T20:29:24.802Z,6.50
2019-03-21T20:32:05.230Z,5.07
2019-03-21T20:34:46.124Z,4.60
2019-03-21T20:37:26.767Z,5.00
2019-03-21T20:40:06.203Z,4.13
2019-03-21T20:42:46.681Z,5.33
2019-03-21T20:45:26.693Z,4.83
2019-03-21T20:48:06.541Z,4.73
2019-03-21T20:50:46.571Z,5.47
2019-03-21T20:53:26.858Z,5.53
2019-03-21T20:56:07.181Z,5.10
2019-03-21T20:58:46.890Z,6.70
2019-03-21T21:01:27.976Z,5.70
2019-03-21T21:04:08.153Z,6.50
2019-03-21T21:06:47.865Z,5.57
2019-03-21T21:09:27.657Z,5.17
2019-03-21T21:12:08.146Z,7.03
2019-03-21T21:14:48.170Z,4.80
2019-03-21T21:17:31.684Z,7.40
2019-03-21T21:22:52.112Z,7.33
2019-03-21T21:25:19.591Z,7.40
2019-03-21T21:27:59.239Z,7.10
2019-03-21T21:30:39.340Z,6.57
2019-03-21T21:33:19.276Z,6.77
2019-03-21T21:35:59.397Z,5.62
2019-03-21T21:38:39.485Z,6.40
2019-03-21T21:41:19.610Z,6.20
2019-03-21T21:44:00.859Z,7.10
2019-03-21T21:46:40.783Z,6.67
2019-03-21T21:49:20.462Z,8.65
2019-03-21T21:52:00.454Z,7.55
2019-03-21T21:54:40.778Z,7.08
2019-03-21T21:57:20.835Z,7.45
2019-03-21T22:00:00.695Z,7.15
2019-03-21T22:02:40.752Z,7.00
2019-03-21T22:05:20.934Z,5.62
2019-03-21T22:08:01.419Z,7.42
2019-03-21T22:10:41.367Z,6.83
2019-03-21T22:13:21.444Z,6.97
2019-03-21T22:16:01.578Z,6.12
2019-03-21T22:18:41.523Z,7.05
2019-03-21T22:21:21.529Z,6.90
2019-03-21T22:24:01.822Z,7.15
2019-03-21T22:26:41.715Z,6.83
2019-03-21T22:29:21.700Z,7.35
2019-03-21T22:32:01.775Z,7.75
2019-03-21T22:34:41.666Z,7.92
2019-03-21T22:37:21.923Z,7.62
2019-03-21T22:40:01.974Z,6.90
2019-03-21T22:42:41.793Z,6.58
2019-03-21T22:45:24.213Z,6.70
2019-03-21T22:48:04.355Z,6.10
2019-03-21T22:50:44.199Z,6.78
2019-03-21T22:53:24.167Z,6.40
2019-03-21T22:56:04.264Z,5.80
2019-03-21T22:58:44.633Z,6.17
2019-03-21T23:01:24.666Z,6.85
2019-03-21T23:04:04.584Z,6.30
2019-03-21T23:06:44.472Z,5.75
2019-03-21T23:09:24.212Z,5.80
2019-03-21T23:12:04.154Z,6.25
2019-03-21T23:14:44.138Z,6.50
2019-03-21T23:17:24.378Z,6.20
2019-03-21T23:20:04.299Z,7.42
2019-03-21T23:22:44.421Z,6.53
2019-03-21T23:25:26.754Z,7.40
2019-03-21T23:28:06.770Z,8.08
2019-03-21T23:30:46.487Z,7.33
2019-03-21T23:33:26.156Z,6.80
2019-03-21T23:36:06.420Z,7.50
2019-03-21T23:41:27.736Z,7.20
2019-03-21T23:44:07.720Z,7.55
2019-03-21T23:46:47.723Z,7.95
2019-03-21T23:49:27.874Z,8.18
2019-03-21T23:52:07.693Z,8.18
2019-03-21T23:54:55.055Z,7.05
2019-03-21T23:57:41.968Z,7.53
